createdAt,value
2023-03-05T00:00:21.919Z,12.98
2023-03-05T00:02:48.570Z,9.85
2023-03-05T00:05:15.193Z,7.88
2023-03-05T00:07:41.788Z,11.05
2023-03-05T00:10:08.826Z,6.35
2023-03-05T00:12:35.370Z,15.15
2023-03-05T00:15:01.924Z,11.98
2023-03-05T00:17:28.484Z,8.30
2023-03-05T00:19:56.994Z,8.35
2023-03-05T00:22:23.563Z,9.23
2023-03-05T00:24:51.417Z,7.55
2023-03-05T00:27:18.124Z,10.00
2023-03-05T00:29:44.702Z,7.78
2023-03-05T00:32:11.327Z,10.65
2023-03-05T00:34:37.866Z,7.78
2023-03-05T00:37:04.926Z,7.28
2023-03-05T00:39:31.541Z,5.70
2023-03-05T00:41:58.103Z,14.13
2023-03-05T00:44:25.326Z,11.77
2023-03-05T00:46:51.958Z,6.30
2023-03-05T00:49:18.556Z,8.68
2023-03-05T00:51:45.202Z,11.70
2023-03-05T00:54:11.741Z,12.45
2023-03-05T00:56:38.337Z,8.57
2023-03-05T00:59:05.034Z,6.35
2023-03-05T01:01:31.678Z,4.78
2023-03-05T01:03:59.646Z,7.70
2023-03-05T01:06:26.167Z,6.32
2023-03-05T01:08:52.745Z,9.70
2023-03-05T01:11:19.425Z,9.07
2023-03-05T01:13:46.047Z,10.20
2023-03-05T01:16:12.618Z,6.13
2023-03-05T01:18:39.857Z,9.70
2023-03-05T01:21:06.805Z,6.60
2023-03-05T01:23:35.687Z,7.93
2023-03-05T01:26:02.270Z,7.63
2023-03-05T01:28:28.877Z,5.90
2023-03-05T01:30:55.604Z,6.68
2023-03-05T01:33:22.199Z,6.82
2023-03-05T01:35:49.725Z,8.35
2023-03-05T01:38:17.018Z,10.30
2023-03-05T01:40:44.329Z,10.82
2023-03-05T01:43:10.857Z,13.07
2023-03-05T01:45:38.306Z,9.48
2023-03-05T01:48:05.183Z,9.35
2023-03-05T01:50:32.357Z,13.65
2023-03-05T01:53:02.904Z,11.07
2023-03-05T01:55:30.816Z,6.88
2023-03-05T01:58:10.703Z,9.43
2023-03-05T02:00:44.388Z,9.00
2023-03-05T02:05:39.270Z,9.77
2023-03-05T02:08:08.262Z,13.50
2023-03-05T02:10:40.454Z,16.60
2023-03-05T02:13:10.727Z,9.15
2023-03-05T02:15:37.927Z,10.63
2023-03-05T02:18:05.883Z,10.88
2023-03-05T02:21:03.901Z,7.38
2023-03-05T02:23:33.936Z,8.70
2023-03-05T02:26:00.570Z,10.38
2023-03-05T02:28:52.302Z,6.68
2023-03-05T02:31:21.296Z,6.70
2023-03-05T02:33:48.446Z,8.38
2023-03-05T02:36:15.944Z,10.35
2023-03-05T02:38:44.079Z,7.63
2023-03-05T02:41:11.086Z,12.77
2023-03-05T02:43:38.027Z,5.88
2023-03-05T02:46:05.350Z,7.50
2023-03-05T02:48:32.304Z,8.20
2023-03-05T02:50:58.887Z,9.13
2023-03-05T02:53:26.408Z,7.70
2023-03-05T02:55:53.114Z,6.65
2023-03-05T02:58:19.702Z,12.52
2023-03-05T03:00:49.347Z,8.32
2023-03-05T03:03:16.176Z,9.20
2023-03-05T03:05:42.705Z,7.40
2023-03-05T03:08:10.341Z,10.27
2023-03-05T03:10:37.172Z,6.32
2023-03-05T03:13:03.944Z,9.70
2023-03-05T03:15:30.558Z,7.70
2023-03-05T03:17:57.110Z,7.13
2023-03-05T03:20:24.092Z,10.38
2023-03-05T03:22:50.621Z,6.53
2023-03-05T03:25:19.324Z,9.48
2023-03-05T03:27:45.959Z,10.73
2023-03-05T03:30:13.527Z,9.70
2023-03-05T03:32:40.036Z,5.22
2023-03-05T03:35:07.210Z,4.85
2023-03-05T03:37:33.775Z,10.43
2023-03-05T03:40:00.332Z,7.43
2023-03-05T03:42:26.915Z,10.57
2023-03-05T03:44:53.548Z,4.57
2023-03-05T03:47:20.089Z,10.13
2023-03-05T03:49:46.631Z,5.45
2023-03-05T03:52:13.153Z,11.27
2023-03-05T03:54:39.919Z,7.68
2023-03-05T03:57:06.572Z,9.18
2023-03-05T03:59:33.171Z,8.40
2023-03-05T04:01:59.734Z,5.00
2023-03-05T04:04:26.597Z,7.57
2023-03-05T04:06:53.250Z,7.45
2023-03-05T04:09:19.868Z,3.63
2023-03-05T04:11:46.418Z,3.05
2023-03-05T04:14:13.017Z,3.03
2023-03-05T04:16:39.549Z,6.65
2023-03-05T04:19:06.143Z,10.68
2023-03-05T04:21:32.722Z,5.00
2023-03-05T04:23:59.256Z,5.80
2023-03-05T04:26:25.896Z,4.15
2023-03-05T04:28:52.485Z,5.60
2023-03-05T04:31:20.621Z,4.82
2023-03-05T04:33:47.287Z,6.32
2023-03-05T04:36:13.852Z,6.00
2023-03-05T04:38:40.455Z,7.03
2023-03-05T04:41:06.999Z,2.30
2023-03-05T04:43:33.566Z,5.30
2023-03-05T04:46:00.126Z,6.80
2023-03-05T04:48:26.735Z,6.07
2023-03-05T04:50:53.360Z,1.73
2023-03-05T04:53:19.917Z,7.57
2023-03-05T04:55:46.460Z,3.88
2023-03-05T04:58:12.975Z,5.93
2023-03-05T05:00:39.508Z,2.42
2023-03-05T05:03:06.148Z,3.55
2023-03-05T05:05:32.758Z,3.58
2023-03-05T05:07:59.293Z,5.13
2023-03-05T05:10:26.568Z,2.33
2023-03-05T05:12:53.228Z,5.93
2023-03-05T05:15:19.904Z,3.63
2023-03-05T05:17:47.079Z,6.03
2023-03-05T05:20:14.878Z,3.53
2023-03-05T05:22:42.041Z,4.03
2023-03-05T05:25:10.384Z,4.43
2023-03-05T05:27:38.545Z,6.00
2023-03-05T05:30:05.802Z,5.05
2023-03-05T05:32:32.442Z,11.93
2023-03-05T05:34:59.493Z,5.80
2023-03-05T05:37:26.584Z,4.00
2023-03-05T05:39:53.303Z,2.65
2023-03-05T05:42:21.967Z,4.88
2023-03-05T05:44:48.691Z,3.78
2023-03-05T05:47:16.750Z,4.45
2023-03-05T05:49:43.454Z,5.68
2023-03-05T05:52:09.991Z,2.97
2023-03-05T05:54:36.532Z,4.30
2023-03-05T05:57:03.311Z,5.40
2023-03-05T05:59:30.005Z,5.40
2023-03-05T06:01:56.663Z,4.43
2023-03-05T06:04:23.293Z,2.72
2023-03-05T06:06:49.833Z,3.90
2023-03-05T06:09:16.513Z,0.93
2023-03-05T06:11:43.112Z,0.98
2023-03-05T06:14:11.889Z,2.45
2023-03-05T06:16:38.718Z,2.63
2023-03-05T06:19:05.342Z,6.38
2023-03-05T06:21:32.134Z,1.95
2023-03-05T06:23:58.776Z,0.60
2023-03-05T06:26:25.908Z,0.52
2023-03-05T06:28:53.018Z,1.23
2023-03-05T06:31:28.049Z,1.75
2023-03-05T06:33:56.912Z,7.90
2023-03-05T06:36:25.042Z,1.35
2023-03-05T06:38:53.429Z,4.13
2023-03-05T06:41:28.374Z,1.13
2023-03-05T06:43:55.353Z,4.07
2023-03-05T06:46:24.692Z,4.60
2023-03-05T06:48:51.614Z,0.85
2023-03-05T06:51:24.883Z,5.20
2023-03-05T06:53:52.484Z,3.65
2023-03-05T06:56:19.800Z,4.50
2023-03-05T06:58:47.971Z,2.60
2023-03-05T07:01:15.495Z,3.38
2023-03-05T07:03:43.108Z,3.50
2023-03-05T07:06:15.905Z,4.00
2023-03-05T07:08:44.642Z,4.20
2023-03-05T07:11:16.892Z,3.38
2023-03-05T07:13:43.863Z,1.20
2023-03-05T07:16:14.926Z,0.98
2023-03-05T07:18:41.573Z,7.40
2023-03-05T07:21:08.954Z,1.58
2023-03-05T07:23:36.331Z,6.03
2023-03-05T07:26:04.908Z,2.10
2023-03-05T07:28:31.719Z,6.38
2023-03-05T07:31:03.757Z,3.55
2023-03-05T07:33:31.988Z,3.50
2023-03-05T07:35:58.656Z,3.47
2023-03-05T07:38:25.317Z,5.38
2023-03-05T07:40:51.870Z,1.50
2023-03-05T07:43:18.710Z,0.68
2023-03-05T07:45:46.123Z,1.75
2023-03-05T07:48:15.358Z,3.08
2023-03-05T07:50:41.936Z,7.80
2023-03-05T07:53:10.067Z,1.08
2023-03-05T07:55:45.535Z,1.33
2023-03-05T07:58:13.813Z,2.88
2023-03-05T08:00:41.073Z,10.20
2023-03-05T08:03:07.597Z,3.92
2023-03-05T08:05:34.293Z,5.07
2023-03-05T08:08:00.976Z,1.67
2023-03-05T08:10:27.563Z,3.97
2023-03-05T08:12:54.136Z,1.40
2023-03-05T08:15:20.806Z,0.60
2023-03-05T08:17:47.399Z,1.30
2023-03-05T08:20:14.261Z,3.30
2023-03-05T08:22:40.880Z,4.57
2023-03-05T08:25:08.356Z,1.25
2023-03-05T08:27:41.421Z,4.70
2023-03-05T08:30:11.892Z,2.63
2023-03-05T08:32:38.688Z,7.55
2023-03-05T08:35:06.736Z,2.75
2023-03-05T08:37:33.620Z,7.43
2023-03-05T08:40:00.156Z,4.72
2023-03-05T08:42:26.701Z,2.42
2023-03-05T08:44:53.290Z,4.50
2023-03-05T08:47:20.411Z,6.85
2023-03-05T08:49:47.137Z,2.42
2023-03-05T08:52:13.710Z,2.20
2023-03-05T08:54:40.322Z,3.47
2023-03-05T08:57:06.892Z,4.60
2023-03-05T08:59:33.433Z,1.83
2023-03-05T09:02:01.202Z,5.13
2023-03-05T09:04:27.825Z,1.17
2023-03-05T09:06:54.444Z,3.13
2023-03-05T09:09:22.766Z,4.15
2023-03-05T09:11:51.587Z,1.50
2023-03-05T09:14:18.192Z,6.00
2023-03-05T09:16:44.815Z,1.90
2023-03-05T09:19:12.758Z,5.07
2023-03-05T09:21:39.336Z,5.03
2023-03-05T09:24:06.135Z,4.88
2023-03-05T09:26:32.704Z,7.53
2023-03-05T09:28:59.311Z,2.55
2023-03-05T09:31:26.134Z,1.63
2023-03-05T09:33:52.777Z,7.45
2023-03-05T09:36:26.352Z,8.05
2023-03-05T09:38:53.214Z,1.70
2023-03-05T09:41:37.183Z,2.00
2023-03-05T09:46:51.751Z,2.50
2023-03-05T09:49:37.428Z,4.63
2023-03-05T09:52:13.982Z,6.20
2023-03-05T09:54:42.733Z,8.80
2023-03-05T09:57:18.316Z,5.25
2023-03-05T09:59:55.147Z,3.95
2023-03-05T10:02:28.178Z,8.35
2023-03-05T10:04:54.781Z,6.75
2023-03-05T10:07:27.040Z,5.78
2023-03-05T10:10:00.700Z,2.75
2023-03-05T10:15:00.757Z,4.82
2023-03-05T10:17:33.458Z,1.38
2023-03-05T10:20:18.414Z,0.30
2023-03-05T10:22:55.591Z,2.70
2023-03-05T10:25:46.439Z,1.70
2023-03-05T10:28:20.012Z,6.95
2023-03-05T10:31:15.830Z,3.78
2023-03-05T10:33:54.603Z,3.20
2023-03-05T10:36:35.245Z,3.83
2023-03-05T10:39:26.299Z,4.35
2023-03-05T10:42:02.550Z,1.80
2023-03-05T10:44:38.900Z,6.47
2023-03-05T10:47:24.270Z,4.25
2023-03-05T10:49:54.110Z,3.30
2023-03-05T10:52:28.247Z,3.50
2023-03-05T10:54:54.802Z,3.03
2023-03-05T10:57:26.703Z,3.10
2023-03-05T10:59:57.153Z,2.53
2023-03-05T11:02:24.023Z,2.83
2023-03-05T11:04:52.218Z,1.45
2023-03-05T11:07:18.663Z,9.13
2023-03-05T11:10:00.525Z,2.90
2023-03-05T11:12:28.352Z,5.47
2023-03-05T11:15:09.884Z,2.28
2023-03-05T11:17:39.450Z,3.72
2023-03-05T11:20:27.042Z,3.05
2023-03-05T11:23:06.753Z,2.08
2023-03-05T11:25:34.481Z,1.50
2023-03-05T11:28:02.794Z,3.67
2023-03-05T11:30:35.543Z,2.20
2023-03-05T11:33:16.379Z,4.63
2023-03-05T11:35:44.050Z,1.08
2023-03-05T11:38:19.690Z,2.53
2023-03-05T11:40:46.811Z,5.97
2023-03-05T11:43:19.535Z,4.05
2023-03-05T11:45:47.880Z,4.30
2023-03-05T11:48:21.412Z,2.55
2023-03-05T11:50:52.771Z,12.55
2023-03-05T11:53:22.541Z,1.63
2023-03-05T11:55:52.345Z,3.20
2023-03-05T11:58:48.934Z,0.82
2023-03-05T12:01:21.499Z,2.22
2023-03-05T12:03:48.530Z,4.72
2023-03-05T12:06:21.077Z,8.02
2023-03-05T12:08:52.034Z,2.63
2023-03-05T12:11:26.369Z,3.30
2023-03-05T12:13:57.126Z,2.13
2023-03-05T12:16:29.190Z,1.63
2023-03-05T12:19:00.934Z,0.90
2023-03-05T12:21:34.017Z,1.63
2023-03-05T12:24:02.589Z,2.78
2023-03-05T12:26:54.276Z,1.52
2023-03-05T12:29:46.811Z,5.57
2023-03-05T12:32:22.662Z,1.65
2023-03-05T12:35:04.331Z,3.25
2023-03-05T12:37:31.365Z,8.68
2023-03-05T12:40:04.423Z,3.92
2023-03-05T12:42:31.403Z,5.03
2023-03-05T12:45:10.648Z,3.22
2023-03-05T12:47:47.850Z,1.08
2023-03-05T12:50:37.595Z,1.48
2023-03-05T12:53:04.339Z,2.65
2023-03-05T12:55:35.338Z,1.67
2023-03-05T12:58:12.321Z,0.57
2023-03-05T13:01:04.707Z,4.50
2023-03-05T13:03:34.395Z,4.80
2023-03-05T13:06:01.221Z,1.00
2023-03-05T13:08:31.625Z,1.90
2023-03-05T13:11:01.031Z,3.70
2023-03-05T13:13:29.879Z,3.42
2023-03-05T13:15:57.321Z,1.25
2023-03-05T13:18:26.450Z,5.47
2023-03-05T13:21:13.781Z,1.95
2023-03-05T13:23:50.392Z,1.85
2023-03-05T13:26:20.566Z,1.77
2023-03-05T13:29:16.825Z,2.80
2023-03-05T13:32:03.602Z,3.78
2023-03-05T13:34:46.137Z,2.45
2023-03-05T13:37:21.935Z,5.13
2023-03-05T13:40:17.962Z,1.08
2023-03-05T13:42:44.540Z,2.20
2023-03-05T13:45:27.688Z,0.32
2023-03-05T13:48:02.981Z,2.28
2023-03-05T13:50:35.296Z,1.65
2023-03-05T13:53:34.450Z,1.20
2023-03-05T13:56:07.017Z,3.03
2023-03-05T13:58:53.838Z,1.88
2023-03-05T14:01:33.586Z,3.47
2023-03-05T14:04:06.959Z,1.90
2023-03-05T14:06:39.532Z,4.28
2023-03-05T14:09:08.734Z,3.63
2023-03-05T14:11:35.800Z,1.33
2023-03-05T14:14:13.716Z,1.17
2023-03-05T14:16:40.440Z,2.53
2023-03-05T14:19:09.132Z,6.53
2023-03-05T14:21:51.858Z,1.75
2023-03-05T14:24:22.916Z,3.90
2023-03-05T14:26:56.482Z,1.48
2023-03-05T14:29:24.497Z,2.25
2023-03-05T14:32:05.421Z,4.75
2023-03-05T14:34:35.018Z,9.18
2023-03-05T14:37:21.077Z,1.42
2023-03-05T14:39:53.959Z,5.22
2023-03-05T14:42:33.905Z,8.18
2023-03-05T14:45:20.792Z,10.77
2023-03-05T14:47:47.698Z,3.10
2023-03-05T14:50:20.677Z,1.92
2023-03-05T14:52:49.159Z,1.92
2023-03-05T14:55:17.574Z,4.60
2023-03-05T14:57:44.210Z,0.95
2023-03-05T15:00:19.369Z,1.30
2023-03-05T15:02:45.993Z,3.20
2023-03-05T15:05:12.624Z,1.60
2023-03-05T15:07:39.165Z,4.63
2023-03-05T15:10:07.714Z,6.53
2023-03-05T15:12:34.833Z,1.10
2023-03-05T15:15:01.464Z,1.50
2023-03-05T15:17:35.712Z,2.95
2023-03-05T15:20:09.961Z,1.52
2023-03-05T15:22:37.131Z,2.92
2023-03-05T15:25:04.403Z,2.88
2023-03-05T15:27:31.161Z,1.83
2023-03-05T15:29:59.005Z,5.43
2023-03-05T15:32:30.644Z,1.08
2023-03-05T15:34:57.553Z,3.67
2023-03-05T15:37:25.676Z,0.93
2023-03-05T15:39:52.884Z,1.50
2023-03-05T15:42:19.440Z,5.30
2023-03-05T15:44:46.061Z,8.15
2023-03-05T15:47:12.649Z,6.18
2023-03-05T15:49:40.261Z,28.70
2023-03-05T15:52:06.883Z,5.80
2023-03-05T15:54:35.436Z,10.82
2023-03-05T15:57:01.992Z,5.13
2023-03-05T15:59:28.709Z,3.95
2023-03-05T16:01:55.375Z,2.58
2023-03-05T16:04:21.999Z,5.32
2023-03-05T16:06:49.519Z,8.00
2023-03-05T16:09:19.121Z,4.97
2023-03-05T16:11:47.969Z,10.43
2023-03-05T16:14:17.917Z,5.53
2023-03-05T16:16:44.692Z,5.70
2023-03-05T16:19:13.091Z,2.10
2023-03-05T16:21:39.830Z,2.92
2023-03-05T16:24:06.529Z,2.72
2023-03-05T16:26:38.361Z,2.30
2023-03-05T16:29:04.989Z,2.15
2023-03-05T16:31:34.049Z,6.05
2023-03-05T16:34:01.598Z,24.58
2023-03-05T16:36:30.175Z,12.13
2023-03-05T16:38:58.957Z,6.25
2023-03-05T16:41:26.267Z,4.72
2023-03-05T16:43:54.087Z,3.42
2023-03-05T16:46:20.732Z,5.43
2023-03-05T16:48:47.342Z,2.03
2023-03-05T16:51:13.907Z,1.83
2023-03-05T16:53:40.802Z,7.25
2023-03-05T16:56:08.474Z,7.72
2023-03-05T16:58:36.394Z,8.73
2023-03-05T17:01:03.827Z,4.85
2023-03-05T17:03:30.620Z,11.43
2023-03-05T17:05:57.237Z,6.45
2023-03-05T17:08:24.411Z,7.15
2023-03-05T17:10:51.429Z,7.15
2023-03-05T17:13:18.123Z,4.32
2023-03-05T17:15:44.740Z,6.57
2023-03-05T17:18:11.651Z,9.07
2023-03-05T17:20:38.224Z,6.45
2023-03-05T17:23:04.806Z,11.25
2023-03-05T17:25:31.412Z,6.05
2023-03-05T17:27:58.087Z,4.72
2023-03-05T17:30:24.699Z,24.88
2023-03-05T17:32:54.526Z,21.02
2023-03-05T17:35:22.252Z,20.88
2023-03-05T17:37:50.913Z,12.57
2023-03-05T17:40:17.766Z,6.20
2023-03-05T17:42:44.378Z,6.68
2023-03-05T17:45:11.291Z,4.15
2023-03-05T17:47:37.887Z,3.92
2023-03-05T17:50:05.603Z,4.80
2023-03-05T17:52:32.196Z,4.55
2023-03-05T17:54:59.593Z,5.20
2023-03-05T17:57:26.419Z,4.72
2023-03-05T17:59:52.942Z,4.15
2023-03-05T18:02:19.487Z,4.03
2023-03-05T18:04:47.874Z,4.60
2023-03-05T18:07:14.542Z,5.85
2023-03-05T18:09:41.213Z,5.78
2023-03-05T18:12:07.859Z,7.35
2023-03-05T18:14:34.358Z,5.93
2023-03-05T18:17:00.898Z,4.60
2023-03-05T18:19:27.473Z,9.68
2023-03-05T18:21:54.072Z,72.03
2023-03-05T18:24:20.644Z,85.35
2023-03-05T18:26:47.168Z,29.42
2023-03-05T18:29:13.774Z,18.58
2023-03-05T18:31:40.384Z,10.20
2023-03-05T18:34:06.949Z,9.05
2023-03-05T18:36:33.507Z,6.25
2023-03-05T18:39:00.161Z,5.07
2023-03-05T18:41:28.189Z,2.75
2023-03-05T18:43:55.054Z,3.60
2023-03-05T18:46:21.658Z,6.35
2023-03-05T18:48:48.315Z,5.28
2023-03-05T18:51:17.262Z,5.97
2023-03-05T18:53:43.981Z,6.18
2023-03-05T18:56:10.585Z,11.45
2023-03-05T18:58:37.323Z,11.27
2023-03-05T19:01:04.685Z,11.52
2023-03-05T19:03:31.317Z,7.82
2023-03-05T19:05:57.926Z,4.45
2023-03-05T19:08:24.434Z,6.55
2023-03-05T19:10:51.023Z,4.88
2023-03-05T19:13:39.575Z,9.25
2023-03-05T19:16:11.778Z,13.85
2023-03-05T19:18:43.977Z,12.25
2023-03-05T19:21:10.595Z,7.72
2023-03-05T19:23:37.134Z,5.13
2023-03-05T19:26:04.263Z,8.48
2023-03-05T19:28:30.932Z,4.90
2023-03-05T19:30:57.613Z,5.10
2023-03-05T19:33:25.101Z,8.15
2023-03-05T19:35:51.844Z,6.55
2023-03-05T19:38:18.444Z,12.35
2023-03-05T19:40:45.234Z,9.13
2023-03-05T19:43:11.774Z,8.45
2023-03-05T19:45:38.431Z,8.40
2023-03-05T19:48:05.479Z,6.05
2023-03-05T19:50:34.369Z,5.65
2023-03-05T19:53:01.200Z,8.07
2023-03-05T19:55:27.826Z,6.35
2023-03-05T19:57:54.378Z,7.63
2023-03-05T20:00:21.444Z,8.23
2023-03-05T20:02:48.708Z,5.85
2023-03-05T20:05:15.573Z,6.80
2023-03-05T20:07:42.113Z,4.32
2023-03-05T20:10:09.336Z,4.47
2023-03-05T20:12:36.392Z,7.45
2023-03-05T20:15:03.208Z,9.38
2023-03-05T20:17:29.779Z,8.65
2023-03-05T20:19:58.932Z,10.10
2023-03-05T20:22:25.598Z,6.03
2023-03-05T20:24:52.230Z,6.13
2023-03-05T20:27:18.765Z,8.93
2023-03-05T20:29:45.755Z,4.97
2023-03-05T20:32:12.455Z,9.68
2023-03-05T20:34:39.070Z,10.40
2023-03-05T20:37:05.960Z,4.22
2023-03-05T20:39:32.560Z,8.23
2023-03-05T20:41:59.226Z,5.93
2023-03-05T20:44:25.847Z,5.00
2023-03-05T20:47:02.495Z,9.20
2023-03-05T20:49:29.215Z,8.60
2023-03-05T20:51:55.741Z,5.88
2023-03-05T20:54:23.949Z,7.53
2023-03-05T20:56:50.753Z,12.43
2023-03-05T20:59:17.622Z,7.97
2023-03-05T21:01:44.295Z,7.43
2023-03-05T21:04:10.908Z,6.32
2023-03-05T21:06:37.631Z,11.27
2023-03-05T21:09:04.548Z,4.47
2023-03-05T21:11:32.010Z,7.95
2023-03-05T21:13:59.235Z,7.75
2023-03-05T21:16:27.062Z,9.07
2023-03-05T21:18:55.995Z,6.57
2023-03-05T21:21:23.487Z,12.02
2023-03-05T21:23:50.229Z,6.57
2023-03-05T21:26:16.943Z,8.13
2023-03-05T21:28:43.565Z,9.63
2023-03-05T21:31:14.135Z,6.75
2023-03-05T21:33:40.971Z,6.32
2023-03-05T21:36:07.794Z,10.20
2023-03-05T21:38:34.722Z,8.30
2023-03-05T21:41:01.944Z,8.52
2023-03-05T21:43:29.342Z,11.77
2023-03-05T21:45:57.245Z,7.53
2023-03-05T21:48:24.716Z,7.20
2023-03-05T21:50:52.348Z,7.40
2023-03-05T21:53:20.021Z,5.57
2023-03-05T21:56:02.633Z,7.53
2023-03-05T21:58:31.174Z,9.32
2023-03-05T22:00:58.864Z,10.80
2023-03-05T22:03:26.640Z,11.32
2023-03-05T22:05:54.208Z,8.98
2023-03-05T22:08:21.879Z,6.47
2023-03-05T22:10:48.486Z,7.47
2023-03-05T22:13:17.657Z,8.50
2023-03-05T22:15:55.094Z,5.65
2023-03-05T22:18:26.976Z,4.90
2023-03-05T22:20:54.002Z,11.48
2023-03-05T22:23:25.014Z,9.13
2023-03-05T22:26:03.220Z,10.30
2023-03-05T22:28:30.261Z,7.75
2023-03-05T22:30:56.891Z,12.90
2023-03-05T22:33:23.657Z,9.52
2023-03-05T22:35:50.351Z,4.32
2023-03-05T22:38:17.315Z,6.88
2023-03-05T22:40:45.465Z,9.52
2023-03-05T22:43:12.489Z,5.13
2023-03-05T22:45:39.124Z,11.30
2023-03-05T22:48:06.293Z,8.70
2023-03-05T22:50:32.871Z,7.57
2023-03-05T22:52:59.542Z,6.90
2023-03-05T22:55:26.172Z,8.90
2023-03-05T22:57:53.218Z,6.93
2023-03-05T23:00:24.041Z,8.35
2023-03-05T23:02:51.427Z,6.40
2023-03-05T23:05:18.862Z,6.40
2023-03-05T23:07:46.010Z,6.95
2023-03-05T23:10:16.055Z,8.23
2023-03-05T23:12:49.372Z,10.50
2023-03-05T23:15:18.520Z,7.47
2023-03-05T23:17:45.528Z,8.93
2023-03-05T23:20:15.873Z,8.80
2023-03-05T23:22:44.574Z,9.90
2023-03-05T23:25:12.397Z,9.98
2023-03-05T23:27:38.975Z,6.00
2023-03-05T23:30:22.108Z,5.88
2023-03-05T23:32:55.963Z,6.88
2023-03-05T23:35:28.385Z,14.38
2023-03-05T23:37:56.256Z,7.60
2023-03-05T23:40:28.729Z,10.27
2023-03-05T23:42:55.712Z,12.68
2023-03-05T23:45:22.704Z,7.63
2023-03-05T23:47:50.263Z,7.95
2023-03-05T23:50:19.413Z,13.38
2023-03-05T23:52:46.512Z,9.65
2023-03-05T23:55:17.005Z,10.13
2023-03-05T23:57:44.118Z,7.32
